Flight Number: EUR2050 Duration: 3:30
Departure: Cairo Int'll Airport (HECA) at 18:15 Distance: 1416 Nm
Arrival: Munich Int'l (EDDM) at 21:45 Equipment: A340

Weather Information
Cairo Airport, Egypt (HECA) 30-08N 031-24E 74M May 23, 2018 - 08:30 PM EDT / 2018.05.24 0030 UTC
Wind: from the NE (040 degrees) at 7 MPH (6 KT):0
Visibility: greater than 7 mile(s):0 Temperature: 80 F (27 C) Dew Point: 57 F (14 C) Relative Humidity: 44% Pressure (altimeter): 29.91 in. Hg (1013 hPa)
ob: HECA 240030Z 04006KT CAVOK 27/14 Q1013 NOSIG cycle: 0
Sunrise: 02:58 Sunset: 16:43 (UTC)

Munchen, Germany (EDDM) 48-21N 011-47E May 23, 2018 - 08:20 PM EDT / 2018.05.24 0020 UTC
Wind: from the WNW (300 degrees) at 2 MPH (2 KT):0
Visibility: greater than 7 mile(s):0
Sky conditions: mostly cloudy Weather: showers in the vicinity; Cumulonimbus clouds observed Temperature: 59 F (15 C) Dew Point: 55 F (13 C) Relative Humidity: 87% Pressure (altimeter): 30.03 in. Hg (1017 hPa)
ob: EDDM 240020Z 30002KT 9999 VCSH FEW016 SCT030CB BKN100 15/13 Q1017 NOSIG cycle: 0
Sunrise: 03:26 Sunset: 18:53 (UTC)

TAF:2018/05/23 18:27 TAF EDDM 231700Z 2318/2424 VRB03KT 9999 SCT035 PROB30 TEMPO 2318/2323 16012KT 3000 TSRA BKN030CB TEMPO 2323/2409 SHRA BKN010 BKN030CB PROB30 TEMPO 2405/2407 15012KT 3000 TSRA BKN006 BKN020CB PROB40 TEMPO 2409/2416 26015G25KT 3000 TSRAGR BKN012 BKN025CB BECMG 2420/2423 2000 BCFG

Previous Pireps for this route
Date Aircraft Flight time Fuel used Landing rate On time
2012-07-17A3403.19441150Yes
2012-10-19A34004.1968703-331No
2013-08-22A34003.56106301-278No
2013-09-18A3405.21112120No
2016-03-05A34004.0290740-123No
2016-08-02B7773.3973181.80Yes
(pireps marked green are flown by you)

Route map